Lachute, Canada
Current Conditions -  °F | °C
As of 3:00 PM on Thursday 27 Nov 2014 (Local Time) from CYMX Reporting Station
Broken Clouds Broken Clouds  
Wind Chill: 23°   Ceiling: 25000
Heat Index: 30°   Visibility: 45mi
Dew Point: 16°   Wind: 8mph
Humidity: 55%   Direction: 210°SSW
Pressure: 30.03"   Gusts: NA
Location:  45.65°N, 74.33°W
Report Text: CYMX 272000Z 21007KT 45SM FEW030 BKN250 M01/M09 A3003 RMK CF1CI7 CF TR SLP174
Loading
Personal Weather Stations






























Interactive Weather Map New forecast layout! Learn more

10-Day Weather Forecast

Advertisements
Track Severe Weather on mobile